sensor_id;sensor_type;location;lat;lon;timestamp;temperature;humidity
18444;DHT22;9350;53.176;8.194;2023-04-03T00:01:39;3.60;99.90
18444;DHT22;9350;53.176;8.194;2023-04-03T00:04:06;3.70;99.90
18444;DHT22;9350;53.176;8.194;2023-04-03T00:06:34;3.80;99.90
18444;DHT22;9350;53.176;8.194;2023-04-03T00:09:01;3.70;99.90
18444;DHT22;9350;53.176;8.194;2023-04-03T00:11:28;3.60;99.90
18444;DHT22;9350;53.176;8.194;2023-04-03T00:13:55;3.60;99.90
18444;DHT22;9350;53.176;8.194;2023-04-03T00:16:22;3.60;99.90
18444;DHT22;9350;53.176;8.194;2023-04-03T00:18:48;3.50;99.90
18444;DHT22;9350;53.176;8.194;2023-04-03T00:21:15;3.40;99.90
18444;DHT22;9350;53.176;8.194;2023-04-03T00:23:43;3.40;99.90
18444;DHT22;9350;53.176;8.194;2023-04-03T00:26:10;3.30;99.90
18444;DHT22;9350;53.176;8.194;2023-04-03T00:28:37;3.40;99.90
18444;DHT22;9350;53.176;8.194;2023-04-03T00:31:04;3.60;99.90
18444;DHT22;9350;53.176;8.194;2023-04-03T00:33:31;3.50;99.90
18444;DHT22;9350;53.176;8.194;2023-04-03T00:35:58;3.60;99.90
18444;DHT22;9350;53.176;8.194;2023-04-03T00:38:24;3.60;99.90
18444;DHT22;9350;53.176;8.194;2023-04-03T00:40:52;3.60;99.90
18444;DHT22;9350;53.176;8.194;2023-04-03T00:43:21;3.50;99.90
18444;DHT22;9350;53.176;8.194;2023-04-03T00:45:49;3.40;99.90
18444;DHT22;9350;53.176;8.194;2023-04-03T00:48:20;3.40;99.90
18444;DHT22;9350;53.176;8.194;2023-04-03T00:50:47;3.20;99.90
18444;DHT22;9350;53.176;8.194;2023-04-03T00:53:17;3.10;99.90
18444;DHT22;9350;53.176;8.194;2023-04-03T00:55:47;3.10;99.90
18444;DHT22;9350;53.176;8.194;2023-04-03T00:58:18;3.10;99.90
18444;DHT22;9350;53.176;8.194;2023-04-03T01:00:49;3.00;99.90
18444;DHT22;9350;53.176;8.194;2023-04-03T01:03:21;3.00;99.90
18444;DHT22;9350;53.176;8.194;2023-04-03T01:05:48;3.00;99.90
18444;DHT22;9350;53.176;8.194;2023-04-03T01:08:15;2.90;99.90
18444;DHT22;9350;53.176;8.194;2023-04-03T01:10:42;3.00;99.90
18444;DHT22;9350;53.176;8.194;2023-04-03T01:13:23;2.90;99.90
18444;DHT22;9350;53.176;8.194;2023-04-03T01:15:51;2.90;99.90
18444;DHT22;9350;53.176;8.194;2023-04-03T01:18:18;2.60;99.90
18444;DHT22;9350;53.176;8.194;2023-04-03T01:23:55;2.50;99.90
18444;DHT22;9350;53.176;8.194;2023-04-03T01:26:24;2.70;99.90
18444;DHT22;9350;53.176;8.194;2023-04-03T01:28:55;2.70;99.90
18444;DHT22;9350;53.176;8.194;2023-04-03T01:31:25;2.80;99.90
18444;DHT22;9350;53.176;8.194;2023-04-03T01:33:54;2.80;99.90
18444;DHT22;9350;53.176;8.194;2023-04-03T01:36:22;2.90;99.90
18444;DHT22;9350;53.176;8.194;2023-04-03T01:38:50;2.80;99.90
18444;DHT22;9350;53.176;8.194;2023-04-03T01:41:17;2.90;99.90
18444;DHT22;9350;53.176;8.194;2023-04-03T01:43:46;2.90;99.90
18444;DHT22;9350;53.176;8.194;2023-04-03T01:46:13;3.00;99.90
18444;DHT22;9350;53.176;8.194;2023-04-03T01:48:40;2.90;99.90
18444;DHT22;9350;53.176;8.194;2023-04-03T01:51:08;2.90;99.90
18444;DHT22;9350;53.176;8.194;2023-04-03T01:53:35;2.90;99.90
18444;DHT22;9350;53.176;8.194;2023-04-03T01:56:03;2.90;99.90
18444;DHT22;9350;53.176;8.194;2023-04-03T01:58:30;2.80;99.90
18444;DHT22;9350;53.176;8.194;2023-04-03T02:00:56;2.80;99.90
18444;DHT22;9350;53.176;8.194;2023-04-03T02:03:23;2.70;99.90
18444;DHT22;9350;53.176;8.194;2023-04-03T02:05:51;2.70;99.90
18444;DHT22;9350;53.176;8.194;2023-04-03T02:08:19;2.70;99.90
18444;DHT22;9350;53.176;8.194;2023-04-03T02:10:47;2.80;99.90
18444;DHT22;9350;53.176;8.194;2023-04-03T02:13:13;2.80;99.90
18444;DHT22;9350;53.176;8.194;2023-04-03T02:15:40;2.80;99.90
18444;DHT22;9350;53.176;8.194;2023-04-03T02:18:07;2.80;99.90
18444;DHT22;9350;53.176;8.194;2023-04-03T02:20:34;2.80;99.90
18444;DHT22;9350;53.176;8.194;2023-04-03T02:23:01;2.80;99.90
18444;DHT22;9350;53.176;8.194;2023-04-03T02:25:30;2.80;99.90
18444;DHT22;9350;53.176;8.194;2023-04-03T02:27:57;2.80;99.90
18444;DHT22;9350;53.176;8.194;2023-04-03T02:30:24;2.80;99.90
18444;DHT22;9350;53.176;8.194;2023-04-03T02:32:51;2.80;99.90
18444;DHT22;9350;53.176;8.194;2023-04-03T02:35:18;2.80;99.90
18444;DHT22;9350;53.176;8.194;2023-04-03T02:37:45;2.70;99.90
18444;DHT22;9350;53.176;8.194;2023-04-03T02:40:12;2.70;99.90
18444;DHT22;9350;53.176;8.194;2023-04-03T02:42:40;2.60;99.90
18444;DHT22;9350;53.176;8.194;2023-04-03T02:45:07;2.60;99.90
18444;DHT22;9350;53.176;8.194;2023-04-03T02:47:34;2.70;99.90
18444;DHT22;9350;53.176;8.194;2023-04-03T02:50:01;2.60;99.90
18444;DHT22;9350;53.176;8.194;2023-04-03T02:52:27;2.60;99.90
18444;DHT22;9350;53.176;8.194;2023-04-03T02:54:54;2.60;99.90
18444;DHT22;9350;53.176;8.194;2023-04-03T02:57:22;2.60;99.90
18444;DHT22;9350;53.176;8.194;2023-04-03T02:59:50;2.60;99.90
18444;DHT22;9350;53.176;8.194;2023-04-03T03:02:17;2.60;99.90
18444;DHT22;9350;53.176;8.194;2023-04-03T03:04:43;2.60;99.90
18444;DHT22;9350;53.176;8.194;2023-04-03T03:07:10;2.70;99.90
18444;DHT22;9350;53.176;8.194;2023-04-03T03:09:37;2.70;99.90
18444;DHT22;9350;53.176;8.194;2023-04-03T03:12:04;2.70;99.90
18444;DHT22;9350;53.176;8.194;2023-04-03T03:14:31;2.70;99.90
18444;DHT22;9350;53.176;8.194;2023-04-03T03:16:59;2.70;99.90
18444;DHT22;9350;53.176;8.194;2023-04-03T03:19:25;2.70;99.90
18444;DHT22;9350;53.176;8.194;2023-04-03T03:21:52;2.70;99.90
18444;DHT22;9350;53.176;8.194;2023-04-03T03:24:19;2.70;99.90
18444;DHT22;9350;53.176;8.194;2023-04-03T03:26:46;2.60;99.90
18444;DHT22;9350;53.176;8.194;2023-04-03T03:29:12;2.50;99.90
18444;DHT22;9350;53.176;8.194;2023-04-03T03:31:39;2.40;99.90
18444;DHT22;9350;53.176;8.194;2023-04-03T03:34:07;2.40;99.90
18444;DHT22;9350;53.176;8.194;2023-04-03T03:36:34;2.40;99.90
18444;DHT22;9350;53.176;8.194;2023-04-03T03:39:01;2.40;99.90
18444;DHT22;9350;53.176;8.194;2023-04-03T03:41:28;2.40;99.90
18444;DHT22;9350;53.176;8.194;2023-04-03T03:43:55;2.40;99.90
18444;DHT22;9350;53.176;8.194;2023-04-03T03:46:21;2.30;99.90
18444;DHT22;9350;53.176;8.194;2023-04-03T03:48:48;2.30;99.90
18444;DHT22;9350;53.176;8.194;2023-04-03T03:51:16;2.30;99.90
18444;DHT22;9350;53.176;8.194;2023-04-03T03:53:43;2.30;99.90
18444;DHT22;9350;53.176;8.194;2023-04-03T03:56:10;2.30;99.90
18444;DHT22;9350;53.176;8.194;2023-04-03T03:58:37;2.20;99.90
18444;DHT22;9350;53.176;8.194;2023-04-03T04:01:04;2.20;99.90
18444;DHT22;9350;53.176;8.194;2023-04-03T04:03:32;2.20;99.90
18444;DHT22;9350;53.176;8.194;2023-04-03T04:05:59;2.10;99.90
18444;DHT22;9350;53.176;8.194;2023-04-03T04:08:27;2.10;99.90
18444;DHT22;9350;53.176;8.194;2023-04-03T04:10:53;2.00;99.90
18444;DHT22;9350;53.176;8.194;2023-04-03T04:13:21;1.90;99.90
18444;DHT22;9350;53.176;8.194;2023-04-03T04:15:47;1.80;99.90
18444;DHT22;9350;53.176;8.194;2023-04-03T04:18:14;1.90;99.90
18444;DHT22;9350;53.176;8.194;2023-04-03T04:20:41;1.90;99.90
18444;DHT22;9350;53.176;8.194;2023-04-03T04:23:07;2.00;99.90
18444;DHT22;9350;53.176;8.194;2023-04-03T04:25:35;1.90;99.90
18444;DHT22;9350;53.176;8.194;2023-04-03T04:28:02;1.90;99.90
18444;DHT22;9350;53.176;8.194;2023-04-03T04:30:29;2.00;99.90
18444;DHT22;9350;53.176;8.194;2023-04-03T04:32:55;2.00;99.90
18444;DHT22;9350;53.176;8.194;2023-04-03T04:35:22;2.00;99.90
18444;DHT22;9350;53.176;8.194;2023-04-03T04:37:49;1.90;99.90
18444;DHT22;9350;53.176;8.194;2023-04-03T04:40:16;1.90;99.90
18444;DHT22;9350;53.176;8.194;2023-04-03T04:42:44;1.80;99.90
18444;DHT22;9350;53.176;8.194;2023-04-03T04:45:11;1.80;99.90
18444;DHT22;9350;53.176;8.194;2023-04-03T04:47:38;1.80;99.90
18444;DHT22;9350;53.176;8.194;2023-04-03T04:50:05;1.80;99.90
18444;DHT22;9350;53.176;8.194;2023-04-03T04:52:32;1.80;99.90
18444;DHT22;9350;53.176;8.194;2023-04-03T04:54:59;1.80;99.90
18444;DHT22;9350;53.176;8.194;2023-04-03T04:57:26;1.70;99.90
18444;DHT22;9350;53.176;8.194;2023-04-03T04:59:54;1.70;99.90
18444;DHT22;9350;53.176;8.194;2023-04-03T05:02:20;1.80;99.90
18444;DHT22;9350;53.176;8.194;2023-04-03T05:04:47;1.80;99.90
18444;DHT22;9350;53.176;8.194;2023-04-03T05:07:15;1.70;99.90
18444;DHT22;9350;53.176;8.194;2023-04-03T05:09:42;1.70;99.90
18444;DHT22;9350;53.176;8.194;2023-04-03T05:12:08;1.70;99.90
18444;DHT22;9350;53.176;8.194;2023-04-03T05:14:35;1.70;99.90
18444;DHT22;9350;53.176;8.194;2023-04-03T05:17:03;1.70;99.90
18444;DHT22;9350;53.176;8.194;2023-04-03T05:19:30;1.70;99.90
18444;DHT22;9350;53.176;8.194;2023-04-03T05:21:57;1.70;99.90
18444;DHT22;9350;53.176;8.194;2023-04-03T05:24:23;1.70;99.90
18444;DHT22;9350;53.176;8.194;2023-04-03T05:26:51;1.70;99.90
18444;DHT22;9350;53.176;8.194;2023-04-03T05:29:18;1.70;99.90
18444;DHT22;9350;53.176;8.194;2023-04-03T05:31:44;1.70;99.90
18444;DHT22;9350;53.176;8.194;2023-04-03T05:34:12;1.80;99.90
18444;DHT22;9350;53.176;8.194;2023-04-03T05:36:40;1.70;99.90
18444;DHT22;9350;53.176;8.194;2023-04-03T05:39:07;1.80;99.90
18444;DHT22;9350;53.176;8.194;2023-04-03T05:41:33;1.70;99.90
18444;DHT22;9350;53.176;8.194;2023-04-03T05:44:00;1.80;99.90
18444;DHT22;9350;53.176;8.194;2023-04-03T05:46:27;1.80;99.90
18444;DHT22;9350;53.176;8.194;2023-04-03T05:48:53;1.80;99.90
18444;DHT22;9350;53.176;8.194;2023-04-03T05:51:24;1.90;99.90
18444;DHT22;9350;53.176;8.194;2023-04-03T05:53:55;1.90;99.90
18444;DHT22;9350;53.176;8.194;2023-04-03T05:56:23;2.00;99.90
18444;DHT22;9350;53.176;8.194;2023-04-03T05:58:49;2.10;99.90
18444;DHT22;9350;53.176;8.194;2023-04-03T06:01:16;2.10;99.90
18444;DHT22;9350;53.176;8.194;2023-04-03T06:03:43;2.20;99.90
18444;DHT22;9350;53.176;8.194;2023-04-03T06:06:12;2.30;99.90
18444;DHT22;9350;53.176;8.194;2023-04-03T06:08:41;2.30;99.90
18444;DHT22;9350;53.176;8.194;2023-04-03T06:11:09;2.30;99.90
18444;DHT22;9350;53.176;8.194;2023-04-03T06:13:36;2.50;99.90
18444;DHT22;9350;53.176;8.194;2023-04-03T06:16:04;2.30;99.90
18444;DHT22;9350;53.176;8.194;2023-04-03T06:18:31;2.40;99.90
18444;DHT22;9350;53.176;8.194;2023-04-03T06:20:58;2.40;99.90
18444;DHT22;9350;53.176;8.194;2023-04-03T06:23:26;2.40;99.90
18444;DHT22;9350;53.176;8.194;2023-04-03T06:25:54;2.50;99.90
18444;DHT22;9350;53.176;8.194;2023-04-03T06:28:21;2.50;99.90
18444;DHT22;9350;53.176;8.194;2023-04-03T06:30:47;2.60;99.90
18444;DHT22;9350;53.176;8.194;2023-04-03T06:33:14;2.60;99.90
18444;DHT22;9350;53.176;8.194;2023-04-03T06:35:41;2.60;99.90
18444;DHT22;9350;53.176;8.194;2023-04-03T06:38:07;2.70;99.90
18444;DHT22;9350;53.176;8.194;2023-04-03T06:40:35;2.80;99.90
18444;DHT22;9350;53.176;8.194;2023-04-03T06:43:03;2.70;99.90
18444;DHT22;9350;53.176;8.194;2023-04-03T06:45:30;2.80;99.90
18444;DHT22;9350;53.176;8.194;2023-04-03T06:47:57;3.00;99.90
18444;DHT22;9350;53.176;8.194;2023-04-03T06:50:24;3.00;99.90
18444;DHT22;9350;53.176;8.194;2023-04-03T06:52:51;3.00;99.90
18444;DHT22;9350;53.176;8.194;2023-04-03T06:55:18;3.10;99.90
18444;DHT22;9350;53.176;8.194;2023-04-03T06:57:45;3.20;99.90
18444;DHT22;9350;53.176;8.194;2023-04-03T07:00:14;3.30;99.90
18444;DHT22;9350;53.176;8.194;2023-04-03T07:02:41;3.50;99.90
18444;DHT22;9350;53.176;8.194;2023-04-03T07:05:08;3.40;99.90
18444;DHT22;9350;53.176;8.194;2023-04-03T07:07:35;3.40;99.90
18444;DHT22;9350;53.176;8.194;2023-04-03T07:10:03;3.50;99.90
18444;DHT22;9350;53.176;8.194;2023-04-03T07:12:30;3.50;99.90
18444;DHT22;9350;53.176;8.194;2023-04-03T07:14:57;3.60;99.90
18444;DHT22;9350;53.176;8.194;2023-04-03T07:17:25;3.60;99.90
18444;DHT22;9350;53.176;8.194;2023-04-03T07:19:52;3.70;99.90
18444;DHT22;9350;53.176;8.194;2023-04-03T07:22:19;3.70;99.90
18444;DHT22;9350;53.176;8.194;2023-04-03T07:24:46;3.70;99.90
18444;DHT22;9350;53.176;8.194;2023-04-03T07:27:12;3.80;99.90
18444;DHT22;9350;53.176;8.194;2023-04-03T07:29:40;3.80;99.90
18444;DHT22;9350;53.176;8.194;2023-04-03T07:32:06;3.80;99.90
18444;DHT22;9350;53.176;8.194;2023-04-03T07:34:34;3.90;99.90
18444;DHT22;9350;53.176;8.194;2023-04-03T07:37:01;3.90;99.90
18444;DHT22;9350;53.176;8.194;2023-04-03T07:39:28;4.00;99.90
18444;DHT22;9350;53.176;8.194;2023-04-03T07:41:55;3.90;99.90
18444;DHT22;9350;53.176;8.194;2023-04-03T07:44:22;4.00;99.90
18444;DHT22;9350;53.176;8.194;2023-04-03T07:46:48;4.00;99.90
18444;DHT22;9350;53.176;8.194;2023-04-03T07:49:16;4.00;99.90
18444;DHT22;9350;53.176;8.194;2023-04-03T07:51:45;4.00;99.90
18444;DHT22;9350;53.176;8.194;2023-04-03T07:54:12;4.00;99.90
18444;DHT22;9350;53.176;8.194;2023-04-03T07:56:38;4.00;99.90
18444;DHT22;9350;53.176;8.194;2023-04-03T07:59:05;4.10;99.90
18444;DHT22;9350;53.176;8.194;2023-04-03T08:01:32;4.10;99.90
18444;DHT22;9350;53.176;8.194;2023-04-03T08:03:59;4.20;99.90
18444;DHT22;9350;53.176;8.194;2023-04-03T08:06:25;4.30;99.90
18444;DHT22;9350;53.176;8.194;2023-04-03T08:08:53;4.20;99.90
18444;DHT22;9350;53.176;8.194;2023-04-03T08:11:21;4.30;99.90
18444;DHT22;9350;53.176;8.194;2023-04-03T08:13:49;4.40;99.90
18444;DHT22;9350;53.176;8.194;2023-04-03T08:16:17;4.40;99.90
18444;DHT22;9350;53.176;8.194;2023-04-03T08:18:44;4.40;99.90
18444;DHT22;9350;53.176;8.194;2023-04-03T08:21:12;4.50;99.90
18444;DHT22;9350;53.176;8.194;2023-04-03T08:23:39;4.50;99.90
18444;DHT22;9350;53.176;8.194;2023-04-03T08:26:12;4.50;99.90
18444;DHT22;9350;53.176;8.194;2023-04-03T08:28:40;4.50;99.90
18444;DHT22;9350;53.176;8.194;2023-04-03T08:31:09;4.60;99.90
18444;DHT22;9350;53.176;8.194;2023-04-03T08:33:37;4.70;99.90
18444;DHT22;9350;53.176;8.194;2023-04-03T08:36:05;4.60;99.90
18444;DHT22;9350;53.176;8.194;2023-04-03T08:38:33;4.80;99.90
18444;DHT22;9350;53.176;8.194;2023-04-03T08:41:06;4.80;99.90
18444;DHT22;9350;53.176;8.194;2023-04-03T08:43:43;4.80;99.90
18444;DHT22;9350;53.176;8.194;2023-04-03T08:46:14;4.90;99.90
18444;DHT22;9350;53.176;8.194;2023-04-03T08:48:43;4.80;99.90
18444;DHT22;9350;53.176;8.194;2023-04-03T08:51:14;4.90;99.90
18444;DHT22;9350;53.176;8.194;2023-04-03T08:53:45;5.00;99.90
18444;DHT22;9350;53.176;8.194;2023-04-03T08:56:14;4.90;99.90
18444;DHT22;9350;53.176;8.194;2023-04-03T08:58:48;4.90;99.90
18444;DHT22;9350;53.176;8.194;2023-04-03T09:01:20;5.10;99.90
18444;DHT22;9350;53.176;8.194;2023-04-03T09:03:47;5.00;99.90
18444;DHT22;9350;53.176;8.194;2023-04-03T09:06:17;5.10;99.90
18444;DHT22;9350;53.176;8.194;2023-04-03T09:08:50;5.20;99.90
18444;DHT22;9350;53.176;8.194;2023-04-03T09:11:22;5.30;99.90
18444;DHT22;9350;53.176;8.194;2023-04-03T09:13:56;5.30;99.90
18444;DHT22;9350;53.176;8.194;2023-04-03T09:16:35;5.40;99.90
18444;DHT22;9350;53.176;8.194;2023-04-03T09:19:12;5.50;99.90
18444;DHT22;9350;53.176;8.194;2023-04-03T09:21:41;5.40;99.90
18444;DHT22;9350;53.176;8.194;2023-04-03T09:24:10;5.50;99.90
18444;DHT22;9350;53.176;8.194;2023-04-03T09:26:42;5.60;99.90
18444;DHT22;9350;53.176;8.194;2023-04-03T09:29:15;5.60;99.90
18444;DHT22;9350;53.176;8.194;2023-04-03T09:31:45;5.60;99.90
18444;DHT22;9350;53.176;8.194;2023-04-03T09:34:18;5.70;99.90
18444;DHT22;9350;53.176;8.194;2023-04-03T09:36:48;5.70;99.90
18444;DHT22;9350;53.176;8.194;2023-04-03T09:39:18;5.70;99.90
18444;DHT22;9350;53.176;8.194;2023-04-03T09:41:56;5.80;99.90
18444;DHT22;9350;53.176;8.194;2023-04-03T09:44:26;5.90;99.90
18444;DHT22;9350;53.176;8.194;2023-04-03T09:46:53;6.00;99.90
18444;DHT22;9350;53.176;8.194;2023-04-03T09:49:20;6.00;99.90
18444;DHT22;9350;53.176;8.194;2023-04-03T09:51:47;6.00;99.90
18444;DHT22;9350;53.176;8.194;2023-04-03T09:54:35;6.10;99.90
18444;DHT22;9350;53.176;8.194;2023-04-03T09:57:09;6.10;99.90
18444;DHT22;9350;53.176;8.194;2023-04-03T09:59:42;6.30;99.90
18444;DHT22;9350;53.176;8.194;2023-04-03T10:02:32;6.30;99.90
18444;DHT22;9350;53.176;8.194;2023-04-03T10:05:00;6.30;99.90
18444;DHT22;9350;53.176;8.194;2023-04-03T10:07:30;6.20;99.90
18444;DHT22;9350;53.176;8.194;2023-04-03T10:09:58;6.20;99.90
18444;DHT22;9350;53.176;8.194;2023-04-03T10:12:27;6.40;99.90
18444;DHT22;9350;53.176;8.194;2023-04-03T10:14:56;6.40;99.90
18444;DHT22;9350;53.176;8.194;2023-04-03T10:17:32;6.50;99.90
18444;DHT22;9350;53.176;8.194;2023-04-03T10:20:07;6.60;99.90
18444;DHT22;9350;53.176;8.194;2023-04-03T10:22:41;6.60;99.90
18444;DHT22;9350;53.176;8.194;2023-04-03T10:25:15;6.70;99.90
18444;DHT22;9350;53.176;8.194;2023-04-03T10:27:49;6.60;99.90
18444;DHT22;9350;53.176;8.194;2023-04-03T10:30:29;6.60;99.90
18444;DHT22;9350;53.176;8.194;2023-04-03T10:33:09;6.70;99.90
18444;DHT22;9350;53.176;8.194;2023-04-03T10:35:43;6.80;99.90
18444;DHT22;9350;53.176;8.194;2023-04-03T10:38:17;6.80;99.90
18444;DHT22;9350;53.176;8.194;2023-04-03T10:40:52;6.80;99.90
18444;DHT22;9350;53.176;8.194;2023-04-03T10:43:28;6.90;99.90
18444;DHT22;9350;53.176;8.194;2023-04-03T10:46:00;6.90;99.90
18444;DHT22;9350;53.176;8.194;2023-04-03T10:48:37;7.00;99.90
18444;DHT22;9350;53.176;8.194;2023-04-03T10:51:14;7.10;99.90
18444;DHT22;9350;53.176;8.194;2023-04-03T10:53:51;7.10;99.90
18444;DHT22;9350;53.176;8.194;2023-04-03T10:56:22;7.20;99.90
18444;DHT22;9350;53.176;8.194;2023-04-03T10:58:58;7.10;99.90
18444;DHT22;9350;53.176;8.194;2023-04-03T11:01:46;7.30;99.90
18444;DHT22;9350;53.176;8.194;2023-04-03T11:04:15;7.30;99.90
18444;DHT22;9350;53.176;8.194;2023-04-03T11:06:47;7.30;99.90
18444;DHT22;9350;53.176;8.194;2023-04-03T11:09:22;7.30;99.90
18444;DHT22;9350;53.176;8.194;2023-04-03T11:11:53;7.40;99.90
18444;DHT22;9350;53.176;8.194;2023-04-03T11:14:26;7.50;99.90
18444;DHT22;9350;53.176;8.194;2023-04-03T11:17:01;7.50;99.90
18444;DHT22;9350;53.176;8.194;2023-04-03T11:19:34;7.60;99.90
18444;DHT22;9350;53.176;8.194;2023-04-03T11:22:06;7.70;99.90
18444;DHT22;9350;53.176;8.194;2023-04-03T11:24:36;7.70;99.90
18444;DHT22;9350;53.176;8.194;2023-04-03T11:27:05;7.70;99.90
18444;DHT22;9350;53.176;8.194;2023-04-03T11:29:37;7.80;99.90
18444;DHT22;9350;53.176;8.194;2023-04-03T11:32:26;7.90;99.90
18444;DHT22;9350;53.176;8.194;2023-04-03T11:34:57;8.00;99.90
18444;DHT22;9350;53.176;8.194;2023-04-03T11:37:29;7.90;99.90
18444;DHT22;9350;53.176;8.194;2023-04-03T11:40:00;7.70;99.90
18444;DHT22;9350;53.176;8.194;2023-04-03T11:42:33;7.70;99.90
18444;DHT22;9350;53.176;8.194;2023-04-03T11:45:27;7.80;99.90
18444;DHT22;9350;53.176;8.194;2023-04-03T11:47:59;7.80;99.90
18444;DHT22;9350;53.176;8.194;2023-04-03T11:50:37;7.80;99.90
18444;DHT22;9350;53.176;8.194;2023-04-03T11:53:27;7.80;99.90
18444;DHT22;9350;53.176;8.194;2023-04-03T11:56:02;7.70;99.90
18444;DHT22;9350;53.176;8.194;2023-04-03T11:58:31;7.80;99.90
18444;DHT22;9350;53.176;8.194;2023-04-03T12:01:03;7.80;99.90
18444;DHT22;9350;53.176;8.194;2023-04-03T12:09:27;7.90;99.90
18444;DHT22;9350;53.176;8.194;2023-04-03T12:11:56;8.00;99.90
18444;DHT22;9350;53.176;8.194;2023-04-03T12:14:25;8.00;99.90
18444;DHT22;9350;53.176;8.194;2023-04-03T12:16:53;8.00;99.90
18444;DHT22;9350;53.176;8.194;2023-04-03T12:19:35;8.00;99.90
18444;DHT22;9350;53.176;8.194;2023-04-03T12:22:11;7.90;99.90
18444;DHT22;9350;53.176;8.194;2023-04-03T12:24:39;8.10;99.90
18444;DHT22;9350;53.176;8.194;2023-04-03T12:27:36;8.00;99.90
18444;DHT22;9350;53.176;8.194;2023-04-03T12:30:15;8.10;99.90
18444;DHT22;9350;53.176;8.194;2023-04-03T12:33:02;8.20;99.90
18444;DHT22;9350;53.176;8.194;2023-04-03T12:35:36;8.20;99.90
18444;DHT22;9350;53.176;8.194;2023-04-03T12:38:22;8.40;99.90
18444;DHT22;9350;53.176;8.194;2023-04-03T12:40:57;8.30;99.90
18444;DHT22;9350;53.176;8.194;2023-04-03T12:43:41;8.30;99.90
18444;DHT22;9350;53.176;8.194;2023-04-03T12:46:14;8.40;99.90
18444;DHT22;9350;53.176;8.194;2023-04-03T12:48:48;8.30;99.90
18444;DHT22;9350;53.176;8.194;2023-04-03T12:51:19;8.50;99.90
18444;DHT22;9350;53.176;8.194;2023-04-03T12:53:49;8.40;99.90
18444;DHT22;9350;53.176;8.194;2023-04-03T12:56:21;8.50;99.90
18444;DHT22;9350;53.176;8.194;2023-04-03T12:58:49;8.40;99.90
18444;DHT22;9350;53.176;8.194;2023-04-03T13:01:17;8.40;99.90
18444;DHT22;9350;53.176;8.194;2023-04-03T13:03:47;8.50;99.90
18444;DHT22;9350;53.176;8.194;2023-04-03T13:06:19;8.40;99.90
18444;DHT22;9350;53.176;8.194;2023-04-03T13:08:52;8.40;99.90
18444;DHT22;9350;53.176;8.194;2023-04-03T13:11:20;8.50;99.90
18444;DHT22;9350;53.176;8.194;2023-04-03T13:13:55;8.60;99.90
18444;DHT22;9350;53.176;8.194;2023-04-03T13:16:22;8.70;99.90
18444;DHT22;9350;53.176;8.194;2023-04-03T13:18:51;8.60;99.90
18444;DHT22;9350;53.176;8.194;2023-04-03T13:21:21;8.70;99.90
18444;DHT22;9350;53.176;8.194;2023-04-03T13:23:52;8.70;99.90
18444;DHT22;9350;53.176;8.194;2023-04-03T13:26:21;8.70;99.90
18444;DHT22;9350;53.176;8.194;2023-04-03T13:28:48;8.70;99.90
18444;DHT22;9350;53.176;8.194;2023-04-03T13:31:20;8.70;99.90
18444;DHT22;9350;53.176;8.194;2023-04-03T13:33:56;8.70;99.90
18444;DHT22;9350;53.176;8.194;2023-04-03T13:36:27;8.80;99.90
18444;DHT22;9350;53.176;8.194;2023-04-03T13:39:02;8.80;99.90
18444;DHT22;9350;53.176;8.194;2023-04-03T13:41:31;8.90;99.90
18444;DHT22;9350;53.176;8.194;2023-04-03T13:44:17;9.00;99.90
18444;DHT22;9350;53.176;8.194;2023-04-03T13:46:44;8.90;99.90
18444;DHT22;9350;53.176;8.194;2023-04-03T13:49:21;8.90;99.90
18444;DHT22;9350;53.176;8.194;2023-04-03T13:51:50;9.00;99.90
18444;DHT22;9350;53.176;8.194;2023-04-03T13:54:21;9.00;99.90
18444;DHT22;9350;53.176;8.194;2023-04-03T13:56:53;9.00;99.90
18444;DHT22;9350;53.176;8.194;2023-04-03T13:59:23;9.00;99.90
18444;DHT22;9350;53.176;8.194;2023-04-03T14:01:53;9.00;99.90
18444;DHT22;9350;53.176;8.194;2023-04-03T14:04:21;8.90;99.90
18444;DHT22;9350;53.176;8.194;2023-04-03T14:06:50;8.90;99.90
18444;DHT22;9350;53.176;8.194;2023-04-03T14:09:19;8.90;99.90
18444;DHT22;9350;53.176;8.194;2023-04-03T14:11:49;9.00;99.90
18444;DHT22;9350;53.176;8.194;2023-04-03T14:14:18;8.90;99.90
18444;DHT22;9350;53.176;8.194;2023-04-03T14:16:48;8.90;99.90
18444;DHT22;9350;53.176;8.194;2023-04-03T14:19:21;9.00;99.90
18444;DHT22;9350;53.176;8.194;2023-04-03T14:21:51;9.00;99.90
18444;DHT22;9350;53.176;8.194;2023-04-03T14:24:19;9.00;99.90
18444;DHT22;9350;53.176;8.194;2023-04-03T14:26:46;9.00;99.90
18444;DHT22;9350;53.176;8.194;2023-04-03T14:29:14;9.10;99.90
18444;DHT22;9350;53.176;8.194;2023-04-03T14:31:42;9.10;99.90
18444;DHT22;9350;53.176;8.194;2023-04-03T14:34:10;9.10;99.90
18444;DHT22;9350;53.176;8.194;2023-04-03T14:36:37;9.00;99.90
18444;DHT22;9350;53.176;8.194;2023-04-03T14:39:06;9.10;99.90
18444;DHT22;9350;53.176;8.194;2023-04-03T14:41:34;9.20;99.90
18444;DHT22;9350;53.176;8.194;2023-04-03T14:44:02;9.30;99.90
18444;DHT22;9350;53.176;8.194;2023-04-03T14:46:31;9.20;99.90
18444;DHT22;9350;53.176;8.194;2023-04-03T14:48:58;9.20;99.90
18444;DHT22;9350;53.176;8.194;2023-04-03T14:51:25;9.10;99.90
18444;DHT22;9350;53.176;8.194;2023-04-03T14:53:52;9.10;99.90
18444;DHT22;9350;53.176;8.194;2023-04-03T14:56:25;8.80;99.90
18444;DHT22;9350;53.176;8.194;2023-04-03T14:58:55;8.70;99.90
18444;DHT22;9350;53.176;8.194;2023-04-03T15:01:22;8.70;99.90
18444;DHT22;9350;53.176;8.194;2023-04-03T15:03:49;8.70;99.90
18444;DHT22;9350;53.176;8.194;2023-04-03T15:06:16;8.80;99.90
18444;DHT22;9350;53.176;8.194;2023-04-03T15:08:44;8.80;99.90
18444;DHT22;9350;53.176;8.194;2023-04-03T15:11:12;8.80;99.90
18444;DHT22;9350;53.176;8.194;2023-04-03T15:13:40;8.90;99.90
18444;DHT22;9350;53.176;8.194;2023-04-03T15:16:14;8.80;99.90
18444;DHT22;9350;53.176;8.194;2023-04-03T15:18:42;8.80;99.90
18444;DHT22;9350;53.176;8.194;2023-04-03T15:21:09;8.80;99.90
18444;DHT22;9350;53.176;8.194;2023-04-03T15:23:36;8.80;99.90
18444;DHT22;9350;53.176;8.194;2023-04-03T15:26:03;8.70;99.90
18444;DHT22;9350;53.176;8.194;2023-04-03T15:28:31;8.70;99.90
18444;DHT22;9350;53.176;8.194;2023-04-03T15:31:01;8.80;99.90
18444;DHT22;9350;53.176;8.194;2023-04-03T15:33:28;8.80;99.90
18444;DHT22;9350;53.176;8.194;2023-04-03T15:35:54;8.80;99.90
18444;DHT22;9350;53.176;8.194;2023-04-03T15:38:21;8.70;99.90
18444;DHT22;9350;53.176;8.194;2023-04-03T15:40:48;8.70;99.90
18444;DHT22;9350;53.176;8.194;2023-04-03T15:43:16;8.70;99.90
18444;DHT22;9350;53.176;8.194;2023-04-03T15:45:43;8.70;99.90
18444;DHT22;9350;53.176;8.194;2023-04-03T15:48:12;8.70;99.90
18444;DHT22;9350;53.176;8.194;2023-04-03T15:50:39;8.70;99.90
18444;DHT22;9350;53.176;8.194;2023-04-03T15:53:06;8.70;99.90
18444;DHT22;9350;53.176;8.194;2023-04-03T15:55:34;8.60;99.90
18444;DHT22;9350;53.176;8.194;2023-04-03T15:58:02;8.60;99.90
18444;DHT22;9350;53.176;8.194;2023-04-03T16:00:29;8.60;99.90
18444;DHT22;9350;53.176;8.194;2023-04-03T16:02:58;8.60;99.90
18444;DHT22;9350;53.176;8.194;2023-04-03T16:05:28;8.60;99.90
18444;DHT22;9350;53.176;8.194;2023-04-03T16:07:55;8.60;99.90
18444;DHT22;9350;53.176;8.194;2023-04-03T16:10:23;8.60;99.90
18444;DHT22;9350;53.176;8.194;2023-04-03T16:12:50;8.60;99.90
18444;DHT22;9350;53.176;8.194;2023-04-03T16:15:17;8.70;99.90
18444;DHT22;9350;53.176;8.194;2023-04-03T16:17:44;8.50;99.90
18444;DHT22;9350;53.176;8.194;2023-04-03T16:20:13;8.40;99.90
18444;DHT22;9350;53.176;8.194;2023-04-03T16:22:42;8.50;99.90
18444;DHT22;9350;53.176;8.194;2023-04-03T16:25:10;8.30;99.90